Anton, CO

3:00 PM MDT on August 20, 2014 (GMT -0600)
Akron-Washington County | Change Station
CLOSE
Current Station
Airport
Location: Akron,
Elevation: 4662 ft
Nearby Weather Stations

Elev 4662 ft 40.17 °N, 103.21 °W | Updated 7 minutes ago

Clear
Clear
86 °F
Feels Like 86 °F
N
6
Wind Variable Wind from Variable

Today
High -- | Low -- °F
--% Chance of Precip.
Yesterday
High -- | Low -- °F
Precip. -- in
6:10 AM 7:42 PM
Waning Crescent, 19% visible
Pressure 29.70 in
Visibility 10.0 miles
Clouds Clear
Dew Point 52 °F
Humidity 31%
Rainfall 0.00 in
Snow Depth Not available.
UV 9 out of 12
Pollen 10.10 out of 12
Air Quality Not available.
Flu Activity Not available.
METAR KAKO 202053Z AUTO VRB05KT 10SM CLR 30/11 A2989 RMK AO2 SLP055 T03000111 57006

More Conditions Fewer Conditions

Pressure 29.70 in
Visibility 10.0 miles
Clouds Clear
Dew Point 52 °F
Humidity 31%
Rainfall 0.00 in
Snow Depth Not available.
UV 9 out of 12
Pollen 10.10 out of 12
Air Quality Not available.
Flu Activity Not available.
METAR KAKO 202053Z AUTO VRB05KT 10SM CLR 30/11 A2989 RMK AO2 SLP055 T03000111 57006

More Conditions Fewer Conditions

10-Day Weather Forecast

Almanac

Astronomy

Aug. 20, 2014 Rise Set
Actual Time 6:10 AM MDT 7:42 PM MDT
Civil Twilight 5:41 AM MDT 8:10 PM MDT
Nautical Twilight 5:07 AM MDT 8:44 PM MDT
Astronomical Twilight 4:30 AM MDT 9:20 PM MDT
Moon 1:52 AM MDT 4:28 PM MDT
Length of Visible Light 14h 29m
Length of Day
13h 32m
Tomorrow will be 2m 23s shorter.
Waning Crescent, 19% of the Moon is Illuminated
Today
Waning Crescent
Aug 25
New
Sep 2
First Quarter
Sep 8
Full
Sep 15
Last Quarter

Today's Extremes

State Highs State Lows

Community

WunderPhotos

Upload Photos

1,745,758 photos uploaded!

WunderBlogs® & News

Nearby

Snow Depth

Station Depth Elevation
Niwot 0 in 9910 ft
Middle Fork Camp 0 in 9000 ft
Joe Wright 0 in 10120 ft
Summit Ranch 0 in 9400 ft
Willow Creek Pass 0 in 9540 ft

Earthquake Activity

City Distance Mag. Time & Date
No recent earthquake activity has been reported nearby.
Minimum magnitude displayed is 2.5.

Coastal Water Temperatures

Place Temperature
No Stations Reporting

Nearby Weather Stations